sensor_id;sensor_type;location;lat;lon;timestamp;temperature;humidity
76537;DHT22;65381;51.254;15.592;2023-02-12T00:01:35;5.90;88.50
76537;DHT22;65381;51.254;15.592;2023-02-12T00:04:20;5.90;88.40
76537;DHT22;65381;51.254;15.592;2023-02-12T00:06:48;5.90;88.50
76537;DHT22;65381;51.254;15.592;2023-02-12T00:09:15;6.00;88.50
76537;DHT22;65381;51.254;15.592;2023-02-12T00:11:43;6.00;88.50
76537;DHT22;65381;51.254;15.592;2023-02-12T00:14:11;6.00;88.50
76537;DHT22;65381;51.254;15.592;2023-02-12T00:16:39;6.00;88.60
76537;DHT22;65381;51.254;15.592;2023-02-12T00:19:08;6.00;88.50
76537;DHT22;65381;51.254;15.592;2023-02-12T00:21:36;6.00;88.50
76537;DHT22;65381;51.254;15.592;2023-02-12T00:24:04;6.10;88.50
76537;DHT22;65381;51.254;15.592;2023-02-12T00:26:32;6.10;88.40
76537;DHT22;65381;51.254;15.592;2023-02-12T00:29:01;6.10;88.30
76537;DHT22;65381;51.254;15.592;2023-02-12T00:31:30;6.00;88.30
76537;DHT22;65381;51.254;15.592;2023-02-12T00:34:00;6.00;88.40
76537;DHT22;65381;51.254;15.592;2023-02-12T00:36:29;6.00;88.50
76537;DHT22;65381;51.254;15.592;2023-02-12T00:38:59;6.00;88.50
76537;DHT22;65381;51.254;15.592;2023-02-12T00:41:27;6.00;88.50
76537;DHT22;65381;51.254;15.592;2023-02-12T00:43:55;6.00;88.50
76537;DHT22;65381;51.254;15.592;2023-02-12T00:46:23;6.00;88.60
76537;DHT22;65381;51.254;15.592;2023-02-12T00:48:51;6.00;88.60
76537;DHT22;65381;51.254;15.592;2023-02-12T00:51:19;6.00;88.60
76537;DHT22;65381;51.254;15.592;2023-02-12T00:53:47;5.90;88.70
76537;DHT22;65381;51.254;15.592;2023-02-12T00:56:15;6.00;88.70
76537;DHT22;65381;51.254;15.592;2023-02-12T00:58:43;6.00;88.70
76537;DHT22;65381;51.254;15.592;2023-02-12T01:01:11;6.00;88.70
76537;DHT22;65381;51.254;15.592;2023-02-12T01:03:39;6.00;88.70
76537;DHT22;65381;51.254;15.592;2023-02-12T01:06:07;6.00;88.70
76537;DHT22;65381;51.254;15.592;2023-02-12T01:08:35;6.00;88.70
76537;DHT22;65381;51.254;15.592;2023-02-12T01:11:04;6.00;88.80
76537;DHT22;65381;51.254;15.592;2023-02-12T01:13:33;6.00;88.70
76537;DHT22;65381;51.254;15.592;2023-02-12T01:16:05;6.00;88.70
76537;DHT22;65381;51.254;15.592;2023-02-12T01:18:39;6.00;88.80
76537;DHT22;65381;51.254;15.592;2023-02-12T01:21:09;6.00;88.80
76537;DHT22;65381;51.254;15.592;2023-02-12T01:23:38;6.00;88.70
76537;DHT22;65381;51.254;15.592;2023-02-12T01:26:06;6.00;88.80
76537;DHT22;65381;51.254;15.592;2023-02-12T01:28:34;6.00;88.90
76537;DHT22;65381;51.254;15.592;2023-02-12T01:31:09;6.00;88.90
76537;DHT22;65381;51.254;15.592;2023-02-12T01:33:38;6.00;88.80
76537;DHT22;65381;51.254;15.592;2023-02-12T01:36:11;6.10;88.80
76537;DHT22;65381;51.254;15.592;2023-02-12T01:38:39;6.10;88.80
76537;DHT22;65381;51.254;15.592;2023-02-12T01:41:10;6.10;88.80
76537;DHT22;65381;51.254;15.592;2023-02-12T01:43:39;6.10;88.70
76537;DHT22;65381;51.254;15.592;2023-02-12T01:46:10;6.00;88.80
76537;DHT22;65381;51.254;15.592;2023-02-12T01:48:44;6.10;88.80
76537;DHT22;65381;51.254;15.592;2023-02-12T01:51:16;6.10;88.90
76537;DHT22;65381;51.254;15.592;2023-02-12T01:53:50;6.10;88.90
76537;DHT22;65381;51.254;15.592;2023-02-12T01:56:19;6.10;88.80
76537;DHT22;65381;51.254;15.592;2023-02-12T01:58:50;6.00;88.90
76537;DHT22;65381;51.254;15.592;2023-02-12T02:01:21;6.00;88.90
76537;DHT22;65381;51.254;15.592;2023-02-12T02:03:54;6.10;88.80
76537;DHT22;65381;51.254;15.592;2023-02-12T02:06:31;6.00;89.00
76537;DHT22;65381;51.254;15.592;2023-02-12T02:09:01;6.10;88.90
76537;DHT22;65381;51.254;15.592;2023-02-12T02:11:29;6.10;88.80
76537;DHT22;65381;51.254;15.592;2023-02-12T02:14:15;6.10;88.80
76537;DHT22;65381;51.254;15.592;2023-02-12T02:33:24;6.10;88.80
76537;DHT22;65381;51.254;15.592;2023-02-12T02:36:14;6.10;88.80
76537;DHT22;65381;51.254;15.592;2023-02-12T02:39:06;6.10;88.80
76537;DHT22;65381;51.254;15.592;2023-02-12T02:41:58;6.10;88.80
76537;DHT22;65381;51.254;15.592;2023-02-12T02:44:37;6.10;88.90
76537;DHT22;65381;51.254;15.592;2023-02-12T02:47:09;6.10;88.70
76537;DHT22;65381;51.254;15.592;2023-02-12T02:49:45;6.20;88.70
76537;DHT22;65381;51.254;15.592;2023-02-12T02:52:24;6.20;88.70
76537;DHT22;65381;51.254;15.592;2023-02-12T02:54:56;6.10;88.70
76537;DHT22;65381;51.254;15.592;2023-02-12T03:00:21;6.30;88.70
76537;DHT22;65381;51.254;15.592;2023-02-12T03:03:15;6.30;88.60
76537;DHT22;65381;51.254;15.592;2023-02-12T03:05:47;6.30;88.60
76537;DHT22;65381;51.254;15.592;2023-02-12T03:08:19;6.30;88.60
76537;DHT22;65381;51.254;15.592;2023-02-12T03:11:36;6.30;88.50
76537;DHT22;65381;51.254;15.592;2023-02-12T03:14:28;6.20;88.60
76537;DHT22;65381;51.254;15.592;2023-02-12T03:17:09;6.20;88.70
76537;DHT22;65381;51.254;15.592;2023-02-12T03:22:35;6.20;88.70
76537;DHT22;65381;51.254;15.592;2023-02-12T03:25:10;6.20;88.90
76537;DHT22;65381;51.254;15.592;2023-02-12T03:28:10;6.20;88.80
76537;DHT22;65381;51.254;15.592;2023-02-12T03:30:50;6.20;88.70
76537;DHT22;65381;51.254;15.592;2023-02-12T03:33:28;6.20;88.70
76537;DHT22;65381;51.254;15.592;2023-02-12T03:36:12;6.20;88.70
76537;DHT22;65381;51.254;15.592;2023-02-12T03:38:45;6.20;88.70
76537;DHT22;65381;51.254;15.592;2023-02-12T03:41:24;6.20;88.70
76537;DHT22;65381;51.254;15.592;2023-02-12T03:44:12;6.20;88.70
76537;DHT22;65381;51.254;15.592;2023-02-12T03:46:54;6.20;88.70
76537;DHT22;65381;51.254;15.592;2023-02-12T03:49:33;6.20;88.70
76537;DHT22;65381;51.254;15.592;2023-02-12T03:52:03;6.20;88.60
76537;DHT22;65381;51.254;15.592;2023-02-12T03:54:32;6.20;88.70
76537;DHT22;65381;51.254;15.592;2023-02-12T03:57:08;6.20;88.90
76537;DHT22;65381;51.254;15.592;2023-02-12T03:59:38;6.20;88.90
76537;DHT22;65381;51.254;15.592;2023-02-12T04:02:06;6.20;88.90
76537;DHT22;65381;51.254;15.592;2023-02-12T04:04:35;6.20;88.90
76537;DHT22;65381;51.254;15.592;2023-02-12T04:07:04;6.20;88.90
76537;DHT22;65381;51.254;15.592;2023-02-12T04:09:32;6.20;88.90
76537;DHT22;65381;51.254;15.592;2023-02-12T04:15:36;6.20;88.90
76537;DHT22;65381;51.254;15.592;2023-02-12T04:18:24;6.30;88.90
76537;DHT22;65381;51.254;15.592;2023-02-12T04:26:46;6.20;88.80
76537;DHT22;65381;51.254;15.592;2023-02-12T04:37:41;6.20;88.70
76537;DHT22;65381;51.254;15.592;2023-02-12T04:40:17;6.20;88.70
76537;DHT22;65381;51.254;15.592;2023-02-12T04:42:50;6.20;88.80
76537;DHT22;65381;51.254;15.592;2023-02-12T04:45:26;6.20;88.90
76537;DHT22;65381;51.254;15.592;2023-02-12T04:47:55;6.30;88.80
76537;DHT22;65381;51.254;15.592;2023-02-12T04:50:25;6.30;88.70
76537;DHT22;65381;51.254;15.592;2023-02-12T04:52:53;6.30;88.80
76537;DHT22;65381;51.254;15.592;2023-02-12T04:55:21;6.20;88.70
76537;DHT22;65381;51.254;15.592;2023-02-12T04:57:49;6.20;88.80
76537;DHT22;65381;51.254;15.592;2023-02-12T05:00:17;6.20;88.80
76537;DHT22;65381;51.254;15.592;2023-02-12T05:02:45;6.10;89.00
76537;DHT22;65381;51.254;15.592;2023-02-12T05:05:13;6.10;89.10
76537;DHT22;65381;51.254;15.592;2023-02-12T05:07:41;6.10;89.00
76537;DHT22;65381;51.254;15.592;2023-02-12T05:10:10;6.10;89.10
76537;DHT22;65381;51.254;15.592;2023-02-12T05:12:38;6.10;89.10
76537;DHT22;65381;51.254;15.592;2023-02-12T05:15:06;6.10;89.20
76537;DHT22;65381;51.254;15.592;2023-02-12T05:17:36;6.20;89.20
76537;DHT22;65381;51.254;15.592;2023-02-12T05:20:05;6.20;89.10
76537;DHT22;65381;51.254;15.592;2023-02-12T05:22:33;6.30;89.10
76537;DHT22;65381;51.254;15.592;2023-02-12T05:25:02;6.30;89.00
76537;DHT22;65381;51.254;15.592;2023-02-12T05:27:30;6.30;88.80
76537;DHT22;65381;51.254;15.592;2023-02-12T05:29:58;6.20;88.90
76537;DHT22;65381;51.254;15.592;2023-02-12T05:32:26;6.30;89.00
76537;DHT22;65381;51.254;15.592;2023-02-12T05:34:54;6.30;89.00
76537;DHT22;65381;51.254;15.592;2023-02-12T05:37:22;6.20;89.00
76537;DHT22;65381;51.254;15.592;2023-02-12T05:39:50;6.20;89.00
76537;DHT22;65381;51.254;15.592;2023-02-12T05:42:18;6.20;89.00
76537;DHT22;65381;51.254;15.592;2023-02-12T05:44:46;6.20;89.00
76537;DHT22;65381;51.254;15.592;2023-02-12T05:47:14;6.20;89.10
76537;DHT22;65381;51.254;15.592;2023-02-12T05:49:42;6.20;89.10
76537;DHT22;65381;51.254;15.592;2023-02-12T05:52:10;6.20;89.20
76537;DHT22;65381;51.254;15.592;2023-02-12T05:54:38;6.20;89.10
76537;DHT22;65381;51.254;15.592;2023-02-12T05:57:06;6.20;89.10
76537;DHT22;65381;51.254;15.592;2023-02-12T05:59:34;6.20;89.00
76537;DHT22;65381;51.254;15.592;2023-02-12T06:02:01;6.20;89.10
76537;DHT22;65381;51.254;15.592;2023-02-12T06:04:30;6.20;89.10
76537;DHT22;65381;51.254;15.592;2023-02-12T06:06:59;6.10;89.10
76537;DHT22;65381;51.254;15.592;2023-02-12T06:09:27;6.20;89.10
76537;DHT22;65381;51.254;15.592;2023-02-12T06:11:55;6.10;89.10
76537;DHT22;65381;51.254;15.592;2023-02-12T06:14:23;6.10;89.20
76537;DHT22;65381;51.254;15.592;2023-02-12T06:16:51;6.10;89.10
76537;DHT22;65381;51.254;15.592;2023-02-12T06:19:20;6.10;89.20
76537;DHT22;65381;51.254;15.592;2023-02-12T06:21:48;6.10;89.20
76537;DHT22;65381;51.254;15.592;2023-02-12T06:24:17;6.10;89.20
76537;DHT22;65381;51.254;15.592;2023-02-12T06:26:47;6.10;89.20
76537;DHT22;65381;51.254;15.592;2023-02-12T06:29:17;6.10;89.30
76537;DHT22;65381;51.254;15.592;2023-02-12T06:31:45;6.10;89.20
76537;DHT22;65381;51.254;15.592;2023-02-12T06:34:14;6.10;89.20
76537;DHT22;65381;51.254;15.592;2023-02-12T06:36:45;6.10;89.30
76537;DHT22;65381;51.254;15.592;2023-02-12T06:39:15;6.10;89.20
76537;DHT22;65381;51.254;15.592;2023-02-12T06:41:44;6.10;89.20
76537;DHT22;65381;51.254;15.592;2023-02-12T06:44:15;6.10;89.30
76537;DHT22;65381;51.254;15.592;2023-02-12T06:46:42;6.10;89.30
76537;DHT22;65381;51.254;15.592;2023-02-12T06:49:11;6.10;89.30
76537;DHT22;65381;51.254;15.592;2023-02-12T06:51:41;6.10;89.40
76537;DHT22;65381;51.254;15.592;2023-02-12T06:54:14;6.10;89.40
76537;DHT22;65381;51.254;15.592;2023-02-12T06:56:43;6.10;89.40
76537;DHT22;65381;51.254;15.592;2023-02-12T06:59:15;6.10;89.40
76537;DHT22;65381;51.254;15.592;2023-02-12T07:01:43;6.10;89.40
76537;DHT22;65381;51.254;15.592;2023-02-12T07:04:12;6.10;89.40
76537;DHT22;65381;51.254;15.592;2023-02-12T07:06:40;6.20;89.50
76537;DHT22;65381;51.254;15.592;2023-02-12T07:09:08;6.20;89.50
76537;DHT22;65381;51.254;15.592;2023-02-12T07:11:36;6.20;89.50
76537;DHT22;65381;51.254;15.592;2023-02-12T07:14:06;6.30;89.50
76537;DHT22;65381;51.254;15.592;2023-02-12T07:16:34;6.30;89.30
76537;DHT22;65381;51.254;15.592;2023-02-12T07:19:02;6.30;89.30
76537;DHT22;65381;51.254;15.592;2023-02-12T07:21:31;6.30;89.30
76537;DHT22;65381;51.254;15.592;2023-02-12T07:23:59;6.30;89.40
76537;DHT22;65381;51.254;15.592;2023-02-12T07:26:27;6.30;89.40
76537;DHT22;65381;51.254;15.592;2023-02-12T07:28:56;6.30;89.40
76537;DHT22;65381;51.254;15.592;2023-02-12T07:31:25;6.30;89.50
76537;DHT22;65381;51.254;15.592;2023-02-12T07:33:55;6.30;89.60
76537;DHT22;65381;51.254;15.592;2023-02-12T07:36:25;6.40;89.60
76537;DHT22;65381;51.254;15.592;2023-02-12T07:38:55;6.40;89.50
76537;DHT22;65381;51.254;15.592;2023-02-12T07:41:29;6.50;89.50
76537;DHT22;65381;51.254;15.592;2023-02-12T07:44:01;6.50;89.50
76537;DHT22;65381;51.254;15.592;2023-02-12T07:46:36;6.50;89.50
76537;DHT22;65381;51.254;15.592;2023-02-12T07:49:06;6.50;89.50
76537;DHT22;65381;51.254;15.592;2023-02-12T07:51:36;6.50;89.50
76537;DHT22;65381;51.254;15.592;2023-02-12T07:54:04;6.50;89.50
76537;DHT22;65381;51.254;15.592;2023-02-12T07:56:34;6.50;89.50
76537;DHT22;65381;51.254;15.592;2023-02-12T07:59:09;6.60;89.60
76537;DHT22;65381;51.254;15.592;2023-02-12T08:01:56;6.60;89.60
76537;DHT22;65381;51.254;15.592;2023-02-12T08:04:25;6.70;89.50
76537;DHT22;65381;51.254;15.592;2023-02-12T08:06:54;6.60;89.50
76537;DHT22;65381;51.254;15.592;2023-02-12T08:09:26;6.70;89.60
76537;DHT22;65381;51.254;15.592;2023-02-12T08:11:55;6.70;89.70
76537;DHT22;65381;51.254;15.592;2023-02-12T08:14:25;6.70;89.60
76537;DHT22;65381;51.254;15.592;2023-02-12T08:16:54;6.70;89.60
76537;DHT22;65381;51.254;15.592;2023-02-12T08:19:24;6.70;89.70
76537;DHT22;65381;51.254;15.592;2023-02-12T08:21:54;6.80;89.50
76537;DHT22;65381;51.254;15.592;2023-02-12T08:24:23;6.80;89.70
76537;DHT22;65381;51.254;15.592;2023-02-12T08:26:52;7.00;89.60
76537;DHT22;65381;51.254;15.592;2023-02-12T08:29:27;7.00;89.50
76537;DHT22;65381;51.254;15.592;2023-02-12T08:31:57;7.00;89.50
76537;DHT22;65381;51.254;15.592;2023-02-12T08:34:29;7.10;89.50
76537;DHT22;65381;51.254;15.592;2023-02-12T08:36:57;7.20;89.60
76537;DHT22;65381;51.254;15.592;2023-02-12T08:39:27;7.20;89.70
76537;DHT22;65381;51.254;15.592;2023-02-12T08:41:59;7.30;89.50
76537;DHT22;65381;51.254;15.592;2023-02-12T08:44:29;7.40;89.70
76537;DHT22;65381;51.254;15.592;2023-02-12T08:46:56;7.50;89.90
76537;DHT22;65381;51.254;15.592;2023-02-12T08:49:27;7.60;89.80
76537;DHT22;65381;51.254;15.592;2023-02-12T08:51:57;7.80;89.70
76537;DHT22;65381;51.254;15.592;2023-02-12T08:54:28;7.80;89.30
76537;DHT22;65381;51.254;15.592;2023-02-12T08:56:58;7.70;89.50
76537;DHT22;65381;51.254;15.592;2023-02-12T08:59:27;7.80;89.70
76537;DHT22;65381;51.254;15.592;2023-02-12T09:01:55;7.90;89.80
76537;DHT22;65381;51.254;15.592;2023-02-12T09:04:26;7.90;89.60
76537;DHT22;65381;51.254;15.592;2023-02-12T09:06:54;7.90;89.30
76537;DHT22;65381;51.254;15.592;2023-02-12T09:09:23;8.00;89.40
76537;DHT22;65381;51.254;15.592;2023-02-12T09:11:51;8.00;89.50
76537;DHT22;65381;51.254;15.592;2023-02-12T09:14:19;8.10;89.70
76537;DHT22;65381;51.254;15.592;2023-02-12T09:16:53;8.20;89.20
76537;DHT22;65381;51.254;15.592;2023-02-12T09:19:22;8.20;89.30
76537;DHT22;65381;51.254;15.592;2023-02-12T09:21:51;8.20;89.30
76537;DHT22;65381;51.254;15.592;2023-02-12T09:24:24;8.10;89.00
76537;DHT22;65381;51.254;15.592;2023-02-12T09:26:51;8.00;89.10
76537;DHT22;65381;51.254;15.592;2023-02-12T09:29:20;8.00;89.40
76537;DHT22;65381;51.254;15.592;2023-02-12T09:31:47;8.00;89.50
76537;DHT22;65381;51.254;15.592;2023-02-12T09:34:15;8.10;89.30
76537;DHT22;65381;51.254;15.592;2023-02-12T09:36:44;8.00;89.00
76537;DHT22;65381;51.254;15.592;2023-02-12T09:39:12;7.90;89.20
76537;DHT22;65381;51.254;15.592;2023-02-12T09:41:54;7.80;89.40
76537;DHT22;65381;51.254;15.592;2023-02-12T09:44:49;7.80;89.40
76537;DHT22;65381;51.254;15.592;2023-02-12T09:47:30;7.90;89.90
76537;DHT22;65381;51.254;15.592;2023-02-12T09:53:16;8.20;90.00
76537;DHT22;65381;51.254;15.592;2023-02-12T09:55:47;8.50;90.00
76537;DHT22;65381;51.254;15.592;2023-02-12T10:01:00;9.00;90.30
76537;DHT22;65381;51.254;15.592;2023-02-12T10:03:30;9.30;89.70
76537;DHT22;65381;51.254;15.592;2023-02-12T10:06:02;9.40;89.30
76537;DHT22;65381;51.254;15.592;2023-02-12T10:16:48;9.40;89.00
76537;DHT22;65381;51.254;15.592;2023-02-12T10:27:42;9.00;89.20
76537;DHT22;65381;51.254;15.592;2023-02-12T10:30:42;9.10;89.40
76537;DHT22;65381;51.254;15.592;2023-02-12T10:35:55;9.60;89.60
76537;DHT22;65381;51.254;15.592;2023-02-12T10:38:30;9.80;89.20
76537;DHT22;65381;51.254;15.592;2023-02-12T10:41:01;9.80;88.50
76537;DHT22;65381;51.254;15.592;2023-02-12T10:43:29;9.70;88.10
76537;DHT22;65381;51.254;15.592;2023-02-12T10:45:58;9.50;88.00
76537;DHT22;65381;51.254;15.592;2023-02-12T10:48:39;9.30;88.00
76537;DHT22;65381;51.254;15.592;2023-02-12T10:53:42;8.80;88.30
76537;DHT22;65381;51.254;15.592;2023-02-12T11:01:30;9.00;89.50
76537;DHT22;65381;51.254;15.592;2023-02-12T11:04:24;9.10;89.40
76537;DHT22;65381;51.254;15.592;2023-02-12T11:07:07;9.20;89.30
76537;DHT22;65381;51.254;15.592;2023-02-12T11:09:42;9.50;90.70
76537;DHT22;65381;51.254;15.592;2023-02-12T11:12:38;10.10;90.30
76537;DHT22;65381;51.254;15.592;2023-02-12T11:15:19;10.40;89.10
76537;DHT22;65381;51.254;15.592;2023-02-12T11:18:03;10.60;89.20
76537;DHT22;65381;51.254;15.592;2023-02-12T11:20:38;10.80;88.40
76537;DHT22;65381;51.254;15.592;2023-02-12T11:26:05;11.30;89.50
76537;DHT22;65381;51.254;15.592;2023-02-12T11:28:35;11.90;89.20
76537;DHT22;65381;51.254;15.592;2023-02-12T11:33:41;12.30;86.30
76537;DHT22;65381;51.254;15.592;2023-02-12T11:36:22;11.90;86.00
76537;DHT22;65381;51.254;15.592;2023-02-12T11:38:56;11.50;86.20
76537;DHT22;65381;51.254;15.592;2023-02-12T11:41:37;11.10;86.80
76537;DHT22;65381;51.254;15.592;2023-02-12T11:44:23;11.10;87.60
76537;DHT22;65381;51.254;15.592;2023-02-12T11:47:08;11.10;88.10
76537;DHT22;65381;51.254;15.592;2023-02-12T11:49:40;11.20;87.50
76537;DHT22;65381;51.254;15.592;2023-02-12T11:52:20;11.10;87.00
76537;DHT22;65381;51.254;15.592;2023-02-12T11:54:53;10.80;86.80
76537;DHT22;65381;51.254;15.592;2023-02-12T12:03:47;9.90;86.80
76537;DHT22;65381;51.254;15.592;2023-02-12T12:06:23;9.50;87.00
76537;DHT22;65381;51.254;15.592;2023-02-12T12:09:06;9.30;87.50
76537;DHT22;65381;51.254;15.592;2023-02-12T12:11:52;9.20;87.80
76537;DHT22;65381;51.254;15.592;2023-02-12T12:20:13;8.90;87.70
76537;DHT22;65381;51.254;15.592;2023-02-12T12:23:36;8.60;87.90
76537;DHT22;65381;51.254;15.592;2023-02-12T12:26:00;8.50;87.90
76537;DHT22;65381;51.254;15.592;2023-02-12T12:31:18;8.20;88.50
76537;DHT22;65381;51.254;15.592;2023-02-12T12:34:14;8.30;88.90
76537;DHT22;65381;51.254;15.592;2023-02-12T12:59:40;8.00;88.50
76537;DHT22;65381;51.254;15.592;2023-02-12T13:10:52;7.80;88.50
76537;DHT22;65381;51.254;15.592;2023-02-12T13:13:40;7.70;88.70
76537;DHT22;65381;51.254;15.592;2023-02-12T13:21:56;7.70;88.90
76537;DHT22;65381;51.254;15.592;2023-02-12T13:29:47;7.80;88.90
76537;DHT22;65381;51.254;15.592;2023-02-12T13:32:31;7.80;88.80
76537;DHT22;65381;51.254;15.592;2023-02-12T13:35:05;7.80;88.90
76537;DHT22;65381;51.254;15.592;2023-02-12T13:37:50;7.80;88.90
76537;DHT22;65381;51.254;15.592;2023-02-12T13:40:23;7.80;89.10
76537;DHT22;65381;51.254;15.592;2023-02-12T13:51:10;8.30;89.10
76537;DHT22;65381;51.254;15.592;2023-02-12T14:04:59;8.30;88.70
76537;DHT22;65381;51.254;15.592;2023-02-12T14:08:01;8.30;88.60
76537;DHT22;65381;51.254;15.592;2023-02-12T14:10:36;8.20;88.60
76537;DHT22;65381;51.254;15.592;2023-02-12T14:13:21;8.20;88.60
76537;DHT22;65381;51.254;15.592;2023-02-12T14:15:55;8.10;88.70
76537;DHT22;65381;51.254;15.592;2023-02-12T14:18:34;8.20;88.70
76537;DHT22;65381;51.254;15.592;2023-02-12T14:23:45;8.10;88.60
76537;DHT22;65381;51.254;15.592;2023-02-12T14:26:15;8.10;88.60
76537;DHT22;65381;51.254;15.592;2023-02-12T14:28:59;8.00;88.60
76537;DHT22;65381;51.254;15.592;2023-02-12T14:31:33;8.00;88.40
76537;DHT22;65381;51.254;15.592;2023-02-12T14:36:43;7.80;88.40
76537;DHT22;65381;51.254;15.592;2023-02-12T14:46:54;7.80;88.60
76537;DHT22;65381;51.254;15.592;2023-02-12T14:49:38;7.80;88.30
76537;DHT22;65381;51.254;15.592;2023-02-12T14:54:50;7.60;88.50
76537;DHT22;65381;51.254;15.592;2023-02-12T14:57:38;7.60;88.40
76537;DHT22;65381;51.254;15.592;2023-02-12T15:00:33;7.50;88.50
76537;DHT22;65381;51.254;15.592;2023-02-12T15:05:53;7.50;88.50
76537;DHT22;65381;51.254;15.592;2023-02-12T15:09:28;7.50;88.50
76537;DHT22;65381;51.254;15.592;2023-02-12T15:11:58;7.40;88.60
76537;DHT22;65381;51.254;15.592;2023-02-12T15:14:34;7.40;88.50
76537;DHT22;65381;51.254;15.592;2023-02-12T15:17:21;7.40;88.40
76537;DHT22;65381;51.254;15.592;2023-02-12T15:20:03;7.30;88.50
76537;DHT22;65381;51.254;15.592;2023-02-12T15:22:39;7.20;88.50
76537;DHT22;65381;51.254;15.592;2023-02-12T15:25:26;7.20;88.60
76537;DHT22;65381;51.254;15.592;2023-02-12T15:28:02;7.20;88.50
76537;DHT22;65381;51.254;15.592;2023-02-12T15:30:35;7.20;88.60
76537;DHT22;65381;51.254;15.592;2023-02-12T15:33:05;7.10;88.60
76537;DHT22;65381;51.254;15.592;2023-02-12T15:35:43;7.00;88.60
76537;DHT22;65381;51.254;15.592;2023-02-12T15:38:39;7.00;88.60
76537;DHT22;65381;51.254;15.592;2023-02-12T15:41:29;7.00;88.60
76537;DHT22;65381;51.254;15.592;2023-02-12T15:44:28;7.00;88.50
76537;DHT22;65381;51.254;15.592;2023-02-12T15:47:18;7.00;88.50
76537;DHT22;65381;51.254;15.592;2023-02-12T15:49:58;7.00;88.60
76537;DHT22;65381;51.254;15.592;2023-02-12T15:52:34;6.90;88.50
76537;DHT22;65381;51.254;15.592;2023-02-12T15:55:05;6.90;88.50
76537;DHT22;65381;51.254;15.592;2023-02-12T15:57:57;6.80;88.50
76537;DHT22;65381;51.254;15.592;2023-02-12T16:00:40;6.70;88.60
76537;DHT22;65381;51.254;15.592;2023-02-12T16:03:39;6.70;88.70
76537;DHT22;65381;51.254;15.592;2023-02-12T16:06:12;6.60;88.70
76537;DHT22;65381;51.254;15.592;2023-02-12T16:08:55;6.60;88.70
76537;DHT22;65381;51.254;15.592;2023-02-12T16:11:26;6.60;88.70
76537;DHT22;65381;51.254;15.592;2023-02-12T16:14:03;6.60;88.80
76537;DHT22;65381;51.254;15.592;2023-02-12T16:16:44;6.60;88.80
76537;DHT22;65381;51.254;15.592;2023-02-12T16:19:51;6.60;88.80
76537;DHT22;65381;51.254;15.592;2023-02-12T16:22:36;6.60;88.80
76537;DHT22;65381;51.254;15.592;2023-02-12T16:25:32;6.60;88.60
76537;DHT22;65381;51.254;15.592;2023-02-12T16:28:16;6.50;88.70
76537;DHT22;65381;51.254;15.592;2023-02-12T16:30:51;6.60;88.60
76537;DHT22;65381;51.254;15.592;2023-02-12T16:36:35;6.40;88.70
76537;DHT22;65381;51.254;15.592;2023-02-12T16:42:24;6.40;88.80
76537;DHT22;65381;51.254;15.592;2023-02-12T16:44:57;6.40;88.80
76537;DHT22;65381;51.254;15.592;2023-02-12T16:47:26;6.50;88.90
76537;DHT22;65381;51.254;15.592;2023-02-12T16:50:00;6.50;88.90
76537;DHT22;65381;51.254;15.592;2023-02-12T16:52:38;6.40;88.90
76537;DHT22;65381;51.254;15.592;2023-02-12T16:55:16;6.40;88.90
76537;DHT22;65381;51.254;15.592;2023-02-12T16:57:47;6.50;88.90
76537;DHT22;65381;51.254;15.592;2023-02-12T17:00:19;6.40;88.90
76537;DHT22;65381;51.254;15.592;2023-02-12T17:02:49;6.40;88.90
76537;DHT22;65381;51.254;15.592;2023-02-12T17:05:18;6.40;88.90
76537;DHT22;65381;51.254;15.592;2023-02-12T17:07:47;6.40;88.90
76537;DHT22;65381;51.254;15.592;2023-02-12T17:10:17;6.40;88.90
76537;DHT22;65381;51.254;15.592;2023-02-12T17:12:51;6.30;88.80
76537;DHT22;65381;51.254;15.592;2023-02-12T17:15:31;6.30;88.90
76537;DHT22;65381;51.254;15.592;2023-02-12T17:18:03;6.30;88.90
76537;DHT22;65381;51.254;15.592;2023-02-12T17:20:32;6.20;88.90
76537;DHT22;65381;51.254;15.592;2023-02-12T17:23:03;6.20;88.90
76537;DHT22;65381;51.254;15.592;2023-02-12T17:25:33;6.20;88.90
76537;DHT22;65381;51.254;15.592;2023-02-12T17:28:05;6.20;88.90
76537;DHT22;65381;51.254;15.592;2023-02-12T17:30:39;6.10;88.90
76537;DHT22;65381;51.254;15.592;2023-02-12T17:33:19;6.10;89.00
76537;DHT22;65381;51.254;15.592;2023-02-12T17:35:52;6.10;88.90
76537;DHT22;65381;51.254;15.592;2023-02-12T17:38:27;6.10;88.90
76537;DHT22;65381;51.254;15.592;2023-02-12T17:40:57;6.10;88.90
76537;DHT22;65381;51.254;15.592;2023-02-12T17:43:34;6.10;88.90
76537;DHT22;65381;51.254;15.592;2023-02-12T17:46:10;6.10;88.90
76537;DHT22;65381;51.254;15.592;2023-02-12T17:48:42;6.00;88.90
76537;DHT22;65381;51.254;15.592;2023-02-12T17:51:16;6.00;88.90
76537;DHT22;65381;51.254;15.592;2023-02-12T17:53:48;6.00;88.80
76537;DHT22;65381;51.254;15.592;2023-02-12T17:56:19;5.90;88.90
76537;DHT22;65381;51.254;15.592;2023-02-12T17:58:49;5.90;89.00
76537;DHT22;65381;51.254;15.592;2023-02-12T18:01:21;5.90;89.00
76537;DHT22;65381;51.254;15.592;2023-02-12T18:03:57;5.90;89.00
76537;DHT22;65381;51.254;15.592;2023-02-12T18:06:28;5.90;89.00
76537;DHT22;65381;51.254;15.592;2023-02-12T18:09:04;5.90;89.00
76537;DHT22;65381;51.254;15.592;2023-02-12T18:11:34;5.90;88.80
76537;DHT22;65381;51.254;15.592;2023-02-12T18:14:06;5.90;88.80
76537;DHT22;65381;51.254;15.592;2023-02-12T18:16:36;5.80;88.90
76537;DHT22;65381;51.254;15.592;2023-02-12T18:19:06;5.80;89.00
76537;DHT22;65381;51.254;15.592;2023-02-12T18:21:36;5.80;89.00
76537;DHT22;65381;51.254;15.592;2023-02-12T18:24:13;5.80;89.00
76537;DHT22;65381;51.254;15.592;2023-02-12T18:26:43;5.70;89.10
76537;DHT22;65381;51.254;15.592;2023-02-12T18:29:15;5.70;89.10
76537;DHT22;65381;51.254;15.592;2023-02-12T18:31:46;5.70;89.20
76537;DHT22;65381;51.254;15.592;2023-02-12T18:34:20;5.70;89.20
76537;DHT22;65381;51.254;15.592;2023-02-12T18:36:50;5.70;89.10
76537;DHT22;65381;51.254;15.592;2023-02-12T18:39:19;5.70;89.10
76537;DHT22;65381;51.254;15.592;2023-02-12T18:41:49;5.70;89.10
76537;DHT22;65381;51.254;15.592;2023-02-12T18:44:21;5.70;89.20
76537;DHT22;65381;51.254;15.592;2023-02-12T18:46:50;5.70;89.20
76537;DHT22;65381;51.254;15.592;2023-02-12T18:49:20;5.70;89.20
76537;DHT22;65381;51.254;15.592;2023-02-12T18:51:52;5.70;89.20
76537;DHT22;65381;51.254;15.592;2023-02-12T18:54:26;5.70;89.20
76537;DHT22;65381;51.254;15.592;2023-02-12T18:56:55;5.70;89.30
76537;DHT22;65381;51.254;15.592;2023-02-12T18:59:28;5.70;89.30
76537;DHT22;65381;51.254;15.592;2023-02-12T19:01:58;5.70;89.20
76537;DHT22;65381;51.254;15.592;2023-02-12T19:04:29;5.70;89.30
76537;DHT22;65381;51.254;15.592;2023-02-12T19:07:00;5.70;89.30
76537;DHT22;65381;51.254;15.592;2023-02-12T19:09:31;5.70;89.30
76537;DHT22;65381;51.254;15.592;2023-02-12T19:12:00;5.70;89.40